createdAt,value
2023-07-20T00:00:31.549Z,74.83
2023-07-20T00:03:20.512Z,76.11
2023-07-20T00:05:48.640Z,76.28
2023-07-20T00:08:17.621Z,77.02
2023-07-20T00:10:45.581Z,77.38
2023-07-20T00:13:14.042Z,76.80
2023-07-20T00:15:41.994Z,76.43
2023-07-20T00:18:10.122Z,76.55
2023-07-20T00:20:38.062Z,76.31
2023-07-20T00:23:06.542Z,76.95
2023-07-20T00:25:34.691Z,77.28
2023-07-20T00:28:03.052Z,77.89
2023-07-20T00:30:31.057Z,78.01
2023-07-20T00:32:59.131Z,78.07
2023-07-20T00:35:27.190Z,77.90
2023-07-20T00:37:55.424Z,77.62
2023-07-20T00:40:23.469Z,77.38
2023-07-20T00:42:51.459Z,77.31
2023-07-20T00:45:27.186Z,77.35
2023-07-20T00:47:55.297Z,77.71
2023-07-20T00:50:23.817Z,78.09
2023-07-20T00:52:51.917Z,78.65
2023-07-20T00:55:21.094Z,79.50
2023-07-20T00:57:49.201Z,80.10
2023-07-20T01:00:17.672Z,81.05
2023-07-20T01:02:46.709Z,82.02
2023-07-20T01:05:17.724Z,82.40
2023-07-20T01:08:08.714Z,81.45
2023-07-20T01:10:36.775Z,81.93
2023-07-20T01:13:08.150Z,81.72
2023-07-20T01:15:36.165Z,81.20
2023-07-20T01:18:05.821Z,80.37
2023-07-20T01:20:35.727Z,79.32
2023-07-20T01:23:29.258Z,78.89
2023-07-20T01:26:11.180Z,77.68
2023-07-20T01:29:31.166Z,77.04
2023-07-20T01:32:02.330Z,76.26
2023-07-20T01:34:31.543Z,75.98
2023-07-20T01:37:01.974Z,75.25
2023-07-20T01:39:30.733Z,75.42
2023-07-20T01:41:58.967Z,75.40
2023-07-20T01:44:26.955Z,75.26
2023-07-20T01:46:54.931Z,75.05
2023-07-20T01:49:23.020Z,75.25
2023-07-20T01:51:50.995Z,74.95
2023-07-20T01:54:19.070Z,75.09
2023-07-20T01:56:47.796Z,75.09
2023-07-20T01:59:15.844Z,75.24
2023-07-20T02:01:43.988Z,75.28
2023-07-20T02:04:13.615Z,75.54
2023-07-20T02:06:41.553Z,75.85
2023-07-20T02:09:09.585Z,76.31
2023-07-20T02:11:37.629Z,76.77
2023-07-20T02:14:05.611Z,77.54
2023-07-20T02:16:33.766Z,78.23
2023-07-20T02:19:01.805Z,78.23
2023-07-20T02:21:29.775Z,78.29
2023-07-20T02:23:57.737Z,78.08
2023-07-20T02:26:25.837Z,77.79
2023-07-20T02:28:54.057Z,78.41
2023-07-20T02:31:22.262Z,78.61
2023-07-20T02:33:50.420Z,78.68
2023-07-20T02:36:19.012Z,78.35
2023-07-20T02:38:47.611Z,78.86
2023-07-20T02:41:15.617Z,79.40
2023-07-20T02:43:43.612Z,78.97
2023-07-20T02:46:12.155Z,79.78
2023-07-20T02:48:40.199Z,80.22
2023-07-20T02:51:08.756Z,80.06
2023-07-20T02:53:37.747Z,80.59
2023-07-20T02:56:05.732Z,80.95
2023-07-20T02:58:38.347Z,81.84
2023-07-20T03:01:06.422Z,81.32
2023-07-20T03:03:39.935Z,81.86
2023-07-20T03:06:10.060Z,82.62
2023-07-20T03:08:38.083Z,82.90
2023-07-20T03:11:06.101Z,83.10
2023-07-20T03:13:34.052Z,83.35
2023-07-20T03:16:02.120Z,83.45
2023-07-20T03:18:30.613Z,84.13
2023-07-20T03:20:58.576Z,84.47
2023-07-20T03:23:27.623Z,84.53
2023-07-20T03:25:56.419Z,85.01
2023-07-20T03:28:24.812Z,85.79
2023-07-20T03:30:58.023Z,86.36
2023-07-20T03:33:28.774Z,86.26
2023-07-20T03:35:58.132Z,86.53
2023-07-20T03:38:28.313Z,86.61
2023-07-20T03:40:59.036Z,87.14
2023-07-20T03:43:28.628Z,87.57
2023-07-20T03:45:58.017Z,87.46
2023-07-20T03:48:27.168Z,87.69
2023-07-20T03:50:55.519Z,88.66
2023-07-20T03:53:23.493Z,88.82
2023-07-20T03:55:53.066Z,88.60
2023-07-20T03:58:22.713Z,88.67
2023-07-20T04:00:52.585Z,89.34
2023-07-20T04:03:21.469Z,88.39
2023-07-20T04:05:49.636Z,88.47
2023-07-20T04:08:18.635Z,89.21
2023-07-20T04:10:46.726Z,89.56
2023-07-20T04:13:14.712Z,88.88
2023-07-20T04:15:44.028Z,88.84
2023-07-20T04:18:12.068Z,88.86
2023-07-20T04:20:40.076Z,89.31
2023-07-20T04:23:08.176Z,89.51
2023-07-20T04:25:40.698Z,89.75
2023-07-20T04:28:11.142Z,89.58
2023-07-20T04:30:43.647Z,89.62
2023-07-20T04:33:12.196Z,89.57
2023-07-20T04:35:53.666Z,89.70
2023-07-20T04:38:34.515Z,89.36
2023-07-20T04:41:16.125Z,89.65
2023-07-20T04:43:47.208Z,89.59
2023-07-20T04:46:20.569Z,89.06
2023-07-20T04:48:49.254Z,88.60
2023-07-20T04:51:22.041Z,89.57
2023-07-20T04:53:52.552Z,89.30
2023-07-20T04:56:20.889Z,88.92
2023-07-20T04:58:49.174Z,88.92
2023-07-20T05:01:17.428Z,88.91
2023-07-20T05:03:45.727Z,88.52
2023-07-20T05:06:14.076Z,88.27
2023-07-20T05:08:42.281Z,88.70
2023-07-20T05:11:10.402Z,88.51
2023-07-20T05:13:38.935Z,88.24
2023-07-20T05:16:07.078Z,88.02
2023-07-20T05:18:35.655Z,87.99
2023-07-20T05:21:03.845Z,88.01
2023-07-20T05:23:31.778Z,87.69
2023-07-20T05:26:00.626Z,87.56
2023-07-20T05:28:28.707Z,87.62
2023-07-20T05:30:56.733Z,87.42
2023-07-20T05:33:24.670Z,87.17
2023-07-20T05:35:52.569Z,87.20
2023-07-20T05:38:21.297Z,87.02
2023-07-20T05:40:49.274Z,86.79
2023-07-20T05:43:17.271Z,86.77
2023-07-20T05:45:46.456Z,86.57
2023-07-20T05:48:14.591Z,87.13
2023-07-20T05:50:45.584Z,86.48
2023-07-20T05:53:13.613Z,87.27
2023-07-20T05:55:41.956Z,86.97
2023-07-20T05:58:09.946Z,85.41
2023-07-20T06:00:38.000Z,85.02
2023-07-20T06:03:05.952Z,84.52
2023-07-20T06:05:33.962Z,84.77
2023-07-20T06:08:02.459Z,85.08
2023-07-20T06:10:30.478Z,84.76
2023-07-20T06:12:58.565Z,84.39
2023-07-20T06:15:33.548Z,83.56
2023-07-20T06:18:02.270Z,83.66
2023-07-20T06:20:30.386Z,84.08
2023-07-20T06:22:58.435Z,84.16
2023-07-20T06:25:26.630Z,84.15
2023-07-20T06:27:56.963Z,83.61
2023-07-20T06:30:25.442Z,83.46
2023-07-20T06:32:53.451Z,83.69
2023-07-20T06:35:21.999Z,83.67
2023-07-20T06:37:49.992Z,83.76
2023-07-20T06:45:20.265Z,83.48
2023-07-20T06:47:48.291Z,82.70
2023-07-20T06:50:18.432Z,82.27
2023-07-20T06:52:49.284Z,81.88
2023-07-20T06:55:23.236Z,81.51
2023-07-20T06:57:52.784Z,81.79
2023-07-20T07:00:21.274Z,82.09
2023-07-20T07:02:50.785Z,81.08
2023-07-20T07:05:21.274Z,80.88
2023-07-20T07:07:50.267Z,80.05
2023-07-20T07:10:19.585Z,79.85
2023-07-20T07:12:48.338Z,79.49
2023-07-20T07:15:17.470Z,79.70
2023-07-20T07:17:45.864Z,79.63
2023-07-20T07:20:21.128Z,78.90
2023-07-20T07:22:52.635Z,79.12
2023-07-20T07:25:23.523Z,79.24
2023-07-20T07:27:53.996Z,78.92
2023-07-20T07:30:22.062Z,77.54
2023-07-20T07:32:50.391Z,78.14
2023-07-20T07:35:18.845Z,77.98
2023-07-20T07:38:03.904Z,77.48
2023-07-20T07:40:35.855Z,77.15
2023-07-20T07:43:04.764Z,77.04
2023-07-20T07:45:37.825Z,76.54
2023-07-20T07:48:09.529Z,76.51
2023-07-20T07:50:37.498Z,76.70
2023-07-20T07:53:05.422Z,76.94
2023-07-20T07:55:33.357Z,77.06
2023-07-20T07:58:01.293Z,76.94
2023-07-20T08:00:29.286Z,75.63
2023-07-20T08:02:57.344Z,75.35
2023-07-20T08:05:25.576Z,74.35
2023-07-20T08:07:54.246Z,73.75
2023-07-20T08:10:23.229Z,73.67
2023-07-20T08:12:51.148Z,73.78
2023-07-20T08:15:19.204Z,73.07
2023-07-20T08:17:47.391Z,73.30
2023-07-20T08:20:17.564Z,73.91
2023-07-20T08:22:47.662Z,73.43
2023-07-20T08:25:16.724Z,73.29
2023-07-20T08:27:47.479Z,72.27
2023-07-20T08:30:15.435Z,72.19
2023-07-20T08:32:43.435Z,72.15
2023-07-20T08:35:11.382Z,72.06
2023-07-20T08:37:39.589Z,72.05
2023-07-20T08:40:11.043Z,71.29
2023-07-20T08:42:40.055Z,70.75
2023-07-20T08:45:10.469Z,70.47
2023-07-20T08:47:39.269Z,70.38
2023-07-20T08:50:09.306Z,69.85
2023-07-20T08:52:37.648Z,69.92
2023-07-20T08:55:06.458Z,69.30
2023-07-20T08:57:34.945Z,69.57
2023-07-20T09:00:08.561Z,69.51
2023-07-20T09:02:40.747Z,68.83
2023-07-20T09:05:15.422Z,66.89
2023-07-20T09:07:43.614Z,67.29
2023-07-20T09:10:12.721Z,67.45
2023-07-20T09:12:42.326Z,66.39
2023-07-20T09:15:13.001Z,65.27
2023-07-20T09:17:46.617Z,64.90
2023-07-20T09:20:16.656Z,64.55
2023-07-20T09:22:44.878Z,63.98
2023-07-20T09:25:17.739Z,64.43
2023-07-20T09:27:48.194Z,64.93
2023-07-20T09:30:19.171Z,64.80
2023-07-20T09:32:54.610Z,64.95
2023-07-20T09:35:27.627Z,65.42
2023-07-20T09:50:55.074Z,64.47
2023-07-20T09:53:26.500Z,63.80
2023-07-20T09:55:55.655Z,62.48
2023-07-20T09:58:23.830Z,62.30
2023-07-20T10:00:54.216Z,62.57
2023-07-20T10:03:29.760Z,63.30
2023-07-20T10:06:08.733Z,63.63
2023-07-20T10:11:15.541Z,64.88
2023-07-20T10:13:46.170Z,63.95
2023-07-20T10:16:29.395Z,63.98
2023-07-20T10:19:18.056Z,63.21
2023-07-20T10:21:59.506Z,61.80
2023-07-20T10:24:29.174Z,61.91
2023-07-20T10:26:57.431Z,62.86
2023-07-20T10:29:26.474Z,63.58
2023-07-20T10:31:56.158Z,64.06
2023-07-20T10:34:24.945Z,63.83
2023-07-20T10:36:55.838Z,63.73
2023-07-20T10:39:26.054Z,62.50
2023-07-20T10:42:11.045Z,60.60
2023-07-20T10:44:40.223Z,60.44
2023-07-20T10:47:13.476Z,61.23
2023-07-20T10:50:01.892Z,61.16
2023-07-20T10:52:42.255Z,61.89
2023-07-20T10:55:18.124Z,62.85
2023-07-20T10:58:11.000Z,62.48
2023-07-20T11:00:57.195Z,62.09
2023-07-20T11:03:35.752Z,63.60
2023-07-20T11:06:36.159Z,64.82
2023-07-20T11:09:09.973Z,65.09
2023-07-20T11:11:39.575Z,65.00
2023-07-20T11:14:10.548Z,65.58
2023-07-20T11:16:44.782Z,65.03
2023-07-20T11:20:23.024Z,64.73
2023-07-20T11:22:09.065Z,64.27
2023-07-20T11:24:41.722Z,64.05
2023-07-20T11:27:09.819Z,62.74
2023-07-20T11:29:38.902Z,62.38
2023-07-20T11:32:07.348Z,61.14
2023-07-20T11:34:36.691Z,59.94
2023-07-20T11:39:37.747Z,58.66
2023-07-20T11:42:06.435Z,59.15
2023-07-20T11:44:34.459Z,59.45
2023-07-20T11:47:08.586Z,58.97
2023-07-20T11:49:44.195Z,56.00
2023-07-20T11:52:17.033Z,56.57
2023-07-20T11:54:48.663Z,56.19
2023-07-20T11:57:19.154Z,56.22
2023-07-20T12:00:06.664Z,55.33
2023-07-20T12:02:34.576Z,55.30
2023-07-20T12:05:04.157Z,53.48
2023-07-20T12:07:41.054Z,53.35
2023-07-20T12:10:11.599Z,51.07
2023-07-20T12:12:44.779Z,51.20
2023-07-20T12:15:33.245Z,51.94
2023-07-20T12:18:03.335Z,52.32
2023-07-20T12:20:32.882Z,52.37
2023-07-20T12:23:03.960Z,52.21
2023-07-20T12:25:40.606Z,52.04
2023-07-20T12:28:10.930Z,50.51
2023-07-20T12:30:39.815Z,50.27
2023-07-20T12:33:08.327Z,49.68
2023-07-20T12:35:36.399Z,48.90
2023-07-20T12:38:04.419Z,46.88
2023-07-20T12:40:32.375Z,46.71
2023-07-20T12:43:00.366Z,47.31
2023-07-20T12:45:28.669Z,46.27
2023-07-20T12:47:56.617Z,44.91
2023-07-20T12:50:24.598Z,43.96
2023-07-20T12:52:52.503Z,44.43
2023-07-20T12:55:21.176Z,44.49
2023-07-20T12:57:49.234Z,43.40
2023-07-20T13:00:17.775Z,43.02
2023-07-20T13:02:45.883Z,44.32
2023-07-20T13:05:13.806Z,45.22
2023-07-20T13:10:13.553Z,46.12
2023-07-20T13:12:41.645Z,46.54
2023-07-20T13:15:11.755Z,47.00
2023-07-20T13:17:40.983Z,46.89
2023-07-20T13:20:12.200Z,46.51
2023-07-20T13:22:40.724Z,45.80
2023-07-20T13:25:09.261Z,44.95
2023-07-20T13:27:39.091Z,44.93
2023-07-20T13:30:09.855Z,44.90
2023-07-20T13:32:41.353Z,44.80
2023-07-20T13:35:13.253Z,45.02
2023-07-20T13:37:42.572Z,45.72
2023-07-20T13:40:14.664Z,45.43
2023-07-20T13:42:42.807Z,45.05
2023-07-20T13:45:10.956Z,45.47
2023-07-20T13:47:39.057Z,45.14
2023-07-20T13:50:07.815Z,45.00
2023-07-20T13:55:07.705Z,42.82
2023-07-20T13:57:35.912Z,43.07
2023-07-20T14:00:05.447Z,43.70
2023-07-20T14:07:44.459Z,44.46
2023-07-20T14:12:43.389Z,43.20
2023-07-20T14:15:12.432Z,42.67
2023-07-20T14:17:40.528Z,44.40
2023-07-20T14:20:22.102Z,45.86
2023-07-20T14:22:52.033Z,46.54
2023-07-20T14:25:20.635Z,46.79
2023-07-20T14:27:48.861Z,47.35
2023-07-20T14:30:16.989Z,48.18
2023-07-20T14:32:46.155Z,49.09
2023-07-20T14:35:15.363Z,49.96
2023-07-20T14:37:43.364Z,50.32
2023-07-20T14:40:12.410Z,50.77
2023-07-20T14:42:40.618Z,51.56
2023-07-20T14:45:09.331Z,52.62
2023-07-20T14:47:37.440Z,52.72
2023-07-20T14:50:07.414Z,52.67
2023-07-20T14:52:35.357Z,53.02
2023-07-20T14:55:03.271Z,52.81
2023-07-20T14:57:31.240Z,53.29
2023-07-20T14:59:59.196Z,53.15
2023-07-20T15:02:27.362Z,53.72
2023-07-20T15:04:56.990Z,53.59
2023-07-20T15:07:25.120Z,53.80
2023-07-20T15:09:53.399Z,53.83
2023-07-20T15:12:21.371Z,54.12
2023-07-20T15:15:07.458Z,56.38
2023-07-20T15:17:36.872Z,58.63
2023-07-20T15:20:06.560Z,60.66
2023-07-20T15:22:35.617Z,61.85
2023-07-20T15:25:05.370Z,62.46
2023-07-20T15:27:34.113Z,62.94
2023-07-20T15:30:02.720Z,63.21
2023-07-20T15:33:10.129Z,65.54
2023-07-20T15:35:18.958Z,64.75
2023-07-20T15:37:47.623Z,64.19
2023-07-20T15:40:15.597Z,64.72
2023-07-20T15:42:43.731Z,65.73
2023-07-20T15:45:11.874Z,65.56
2023-07-20T15:47:39.937Z,66.18
2023-07-20T15:50:08.283Z,65.66
2023-07-20T15:52:36.292Z,65.76
2023-07-20T15:55:05.830Z,65.85
2023-07-20T15:57:34.877Z,65.40
2023-07-20T16:00:06.060Z,65.27
2023-07-20T16:02:40.669Z,64.76
2023-07-20T16:07:44.522Z,63.13
2023-07-20T16:10:12.624Z,62.88
2023-07-20T16:12:42.318Z,62.78
2023-07-20T16:15:11.342Z,62.86
2023-07-20T16:17:39.379Z,62.54
2023-07-20T16:20:08.897Z,61.99
2023-07-20T16:22:37.366Z,61.22
2023-07-20T16:25:05.647Z,61.00
2023-07-20T16:27:33.583Z,61.28
2023-07-20T16:30:02.729Z,61.02
2023-07-20T16:32:30.734Z,59.73
2023-07-20T16:35:11.691Z,59.93
2023-07-20T16:37:40.091Z,60.43
2023-07-20T16:45:14.855Z,61.13
2023-07-20T16:47:42.977Z,61.24
2023-07-20T16:50:11.518Z,61.03
2023-07-20T16:52:39.520Z,60.79
2023-07-20T16:55:08.161Z,60.29
2023-07-20T16:57:36.602Z,60.09
2023-07-20T17:00:08.781Z,59.43
2023-07-20T17:02:37.956Z,59.82
2023-07-20T17:05:10.979Z,59.78
2023-07-20T17:07:40.204Z,59.33
2023-07-20T17:10:11.301Z,58.70
2023-07-20T17:12:41.326Z,58.84
2023-07-20T17:15:09.694Z,58.99
2023-07-20T17:17:37.712Z,59.39
2023-07-20T17:22:39.745Z,60.39
2023-07-20T17:30:11.773Z,63.51
2023-07-20T17:32:39.950Z,63.42
2023-07-20T17:35:08.328Z,64.20
2023-07-20T17:45:13.491Z,66.17
2023-07-20T17:47:42.409Z,66.41
2023-07-20T17:50:13.612Z,66.38
2023-07-20T17:52:42.764Z,66.25
2023-07-20T17:55:10.672Z,66.56
2023-07-20T17:57:38.682Z,67.21
2023-07-20T18:02:43.044Z,66.23
2023-07-20T18:05:11.290Z,66.43
2023-07-20T18:07:41.991Z,66.56
2023-07-20T18:10:10.476Z,67.03
2023-07-20T18:12:38.952Z,66.64
2023-07-20T18:15:07.355Z,66.81
2023-07-20T18:17:36.736Z,66.98
2023-07-20T18:20:06.795Z,67.61
2023-07-20T18:22:34.998Z,67.32
2023-07-20T18:25:06.080Z,67.69
2023-07-20T18:27:34.443Z,68.07
2023-07-20T18:30:02.437Z,68.74
2023-07-20T18:32:30.407Z,68.57
2023-07-20T18:34:58.446Z,68.72
2023-07-20T18:37:26.468Z,70.07
2023-07-20T18:39:54.907Z,69.84
2023-07-20T18:42:22.899Z,69.82
2023-07-20T18:44:52.181Z,69.65
2023-07-20T18:47:20.220Z,70.22
2023-07-20T18:49:48.277Z,69.58
2023-07-20T18:52:16.204Z,69.31
2023-07-20T18:54:44.635Z,69.40
2023-07-20T18:57:12.636Z,69.25
2023-07-20T18:59:42.436Z,69.15
2023-07-20T19:02:10.518Z,69.50
2023-07-20T19:04:38.518Z,69.61
2023-07-20T19:07:07.535Z,70.47
2023-07-20T19:09:35.596Z,69.85
2023-07-20T19:12:03.900Z,70.30
2023-07-20T19:14:31.912Z,70.49
2023-07-20T19:17:00.112Z,70.14
2023-07-20T19:19:30.148Z,70.58
2023-07-20T19:21:59.121Z,71.38
2023-07-20T19:24:27.055Z,71.74
2023-07-20T19:26:55.016Z,71.32
2023-07-20T19:29:22.999Z,71.18
2023-07-20T19:31:50.956Z,71.19
2023-07-20T19:34:19.110Z,71.04
2023-07-20T19:36:47.693Z,71.74
2023-07-20T19:39:15.925Z,71.62
2023-07-20T19:41:43.867Z,71.80
2023-07-20T19:44:12.286Z,71.96
2023-07-20T19:46:40.670Z,72.46
2023-07-20T19:49:08.893Z,72.95
2023-07-20T19:51:38.166Z,73.25
2023-07-20T19:56:39.203Z,73.36
2023-07-20T19:59:07.187Z,73.42
2023-07-20T20:06:37.032Z,73.82
2023-07-20T20:09:05.865Z,74.81
2023-07-20T20:11:33.913Z,74.75
2023-07-20T20:14:02.334Z,75.07
2023-07-20T20:16:30.460Z,74.15
2023-07-20T20:18:58.476Z,73.77
2023-07-20T20:21:26.521Z,73.60
2023-07-20T20:23:54.700Z,73.98
2023-07-20T20:26:23.407Z,76.42
2023-07-20T20:28:51.614Z,75.52
2023-07-20T20:31:19.588Z,73.92
2023-07-20T20:33:47.586Z,74.12
2023-07-20T20:36:17.258Z,75.16
2023-07-20T20:38:45.199Z,75.26
2023-07-20T20:41:13.193Z,75.91
2023-07-20T20:43:41.572Z,80.92
2023-07-20T20:46:14.553Z,79.93
2023-07-20T20:48:46.808Z,77.75
2023-07-20T20:51:15.054Z,78.59
2023-07-20T20:53:43.299Z,78.93
2023-07-20T20:56:11.320Z,80.32
2023-07-20T20:58:39.269Z,79.84
2023-07-20T21:01:09.478Z,80.03
2023-07-20T21:03:37.507Z,80.63
2023-07-20T21:06:06.474Z,82.26
2023-07-20T21:08:34.772Z,81.81
2023-07-20T21:11:03.360Z,81.68
2023-07-20T21:13:34.038Z,82.03
2023-07-20T21:16:01.958Z,81.86
2023-07-20T21:18:30.154Z,82.39
2023-07-20T21:20:58.098Z,84.31
2023-07-20T21:23:26.372Z,84.67
2023-07-20T21:25:54.282Z,85.36
2023-07-20T21:28:22.864Z,84.95
2023-07-20T21:31:08.164Z,85.75
2023-07-20T21:33:36.468Z,88.03
2023-07-20T21:36:06.711Z,87.47
2023-07-20T21:38:38.701Z,85.76
2023-07-20T21:41:07.848Z,86.49
2023-07-20T21:43:35.875Z,85.34
2023-07-20T21:46:03.952Z,85.24
2023-07-20T21:48:31.940Z,86.10
2023-07-20T21:51:00.430Z,86.37
2023-07-20T21:53:28.443Z,86.60
2023-07-20T21:55:56.498Z,86.40
2023-07-20T21:58:24.380Z,86.36
2023-07-20T22:00:56.911Z,86.60
2023-07-20T22:03:25.178Z,88.21
2023-07-20T22:05:57.260Z,87.33
2023-07-20T22:08:26.189Z,87.82
2023-07-20T22:10:54.767Z,87.49
2023-07-20T22:13:22.981Z,87.30
2023-07-20T22:15:53.524Z,87.37
2023-07-20T22:18:35.445Z,87.81
2023-07-20T22:21:06.330Z,87.61
2023-07-20T22:23:36.110Z,87.84
2023-07-20T22:26:04.364Z,87.99
2023-07-20T22:28:33.042Z,88.97
2023-07-20T22:31:01.184Z,89.23
2023-07-20T22:33:29.255Z,88.89
2023-07-20T22:35:57.217Z,89.28
2023-07-20T22:38:25.563Z,89.10
2023-07-20T22:40:53.700Z,89.20
2023-07-20T22:43:26.621Z,89.02
2023-07-20T22:45:56.030Z,89.72
2023-07-20T22:48:27.155Z,89.77
2023-07-20T22:50:59.837Z,89.85
2023-07-20T22:53:30.657Z,89.64
2023-07-20T22:55:59.249Z,90.38
2023-07-20T22:58:27.247Z,90.26
2023-07-20T23:00:55.365Z,90.10
2023-07-20T23:03:24.556Z,90.84
2023-07-20T23:05:52.918Z,90.59
2023-07-20T23:08:20.840Z,91.05
2023-07-20T23:10:48.795Z,90.87
2023-07-20T23:13:17.637Z,90.80
2023-07-20T23:15:45.822Z,90.57
2023-07-20T23:18:13.942Z,90.85
2023-07-20T23:20:41.988Z,90.56
2023-07-20T23:23:09.995Z,90.70
2023-07-20T23:25:37.993Z,90.83
2023-07-20T23:28:05.913Z,90.63
2023-07-20T23:30:34.539Z,90.68
2023-07-20T23:33:02.629Z,90.73
2023-07-20T23:35:30.765Z,91.17
2023-07-20T23:38:02.175Z,92.13
2023-07-20T23:40:30.180Z,92.73
2023-07-20T23:42:58.192Z,92.38
2023-07-20T23:45:26.212Z,92.56
2023-07-20T23:47:54.223Z,92.74
2023-07-20T23:50:22.409Z,92.86
2023-07-20T23:52:50.694Z,93.28
2023-07-20T23:55:18.726Z,93.16
2023-07-20T23:57:46.854Z,92.80
